Time;durP1;ratioP1;P1;durP2;ratioP2;P2;SDS_P1;SDS_P2;PMS_P1;PMS_P2;Temp;Humidity;BMP_temperature;BMP_pressure;BME280_temperature;BME280_humidity;BME280_pressure;Samples;Min_cycle;Max_cycle;Signal;HPM_P1;HPM_P2
2022/04/21 00:00:44;;;;;;;7.00;3.72;;;;;;;5.20;81.62;97869.97;4987031;28;20066;-82
2022/04/21 00:03:10;;;;;;;3.90;2.70;;;;;;;6.07;79.19;97875.00;4987017;28;20110;-82
2022/04/21 00:05:36;;;;;;;3.50;2.42;;;;;;;6.72;76.22;97876.66;4986963;28;20094;-82
2022/04/21 00:08:02;;;;;;;5.28;3.05;;;;;;;7.02;74.64;97870.88;4987778;28;20106;-82
2022/04/21 00:10:29;;;;;;;4.03;2.70;;;;;;;7.17;73.48;97869.75;4986867;28;20014;-82
2022/04/21 00:12:57;;;;;;;6.15;2.80;;;;;;;7.29;72.78;97874.75;4988014;28;20334;-82
2022/04/21 00:15:24;;;;;;;11.48;3.78;;;;;;;7.61;72.40;97873.25;4987956;28;20199;-82
2022/04/21 00:17:50;;;;;;;6.82;3.50;;;;;;;7.71;71.97;97869.56;4987899;28;20027;-82
2022/04/21 00:20:15;;;;;;;6.55;3.22;;;;;;;7.74;71.41;97879.97;4986343;28;20161;-82
2022/04/21 00:25:28;;;;;;;9.18;3.15;;;;;;;7.89;70.80;97863.97;4987708;28;20093;-82
2022/04/21 00:27:55;;;;;;;4.78;2.63;;;;;;;7.78;70.96;97871.16;4986588;28;20034;-82
2022/04/21 00:30:21;;;;;;;4.93;2.92;;;;;;;7.74;71.86;97869.50;4987685;28;20188;-82
2022/04/21 00:32:47;;;;;;;4.07;2.80;;;;;;;7.77;71.50;97869.44;4986314;28;20098;-82
2022/04/21 00:35:13;;;;;;;8.77;3.20;;;;;;;7.74;71.94;97871.25;4986516;28;20023;-82
2022/04/21 00:37:52;;;;;;;5.60;3.58;;;;;;;7.76;72.28;97872.97;4986398;28;20026;-82
2022/04/21 00:40:19;;;;;;;11.23;3.20;;;;;;;7.92;72.20;97869.13;4986321;28;20102;-82
2022/04/21 00:42:46;;;;;;;4.63;2.90;;;;;;;7.78;71.87;97859.84;4987358;28;20034;-82
2022/04/21 00:45:13;;;;;;;6.38;3.65;;;;;;;7.62;72.12;97854.03;4986338;28;20019;-82
2022/04/21 00:47:44;;;;;;;5.45;3.22;;;;;;;7.75;72.95;97860.75;4987438;28;20027;-82
2022/04/21 00:50:22;;;;;;;7.95;3.60;;;;;;;7.86;72.38;97858.78;4986035;28;20038;-82
2022/04/21 00:52:49;;;;;;;8.07;4.10;;;;;;;7.68;72.46;97848.66;4986052;28;20213;-82
2022/04/21 00:55:15;;;;;;;10.30;4.00;;;;;;;7.60;73.16;97842.75;4987271;28;20027;-82
2022/04/21 00:57:42;;;;;;;12.73;4.22;;;;;;;7.66;73.26;97850.44;4984946;28;20111;-82
2022/04/21 01:00:08;;;;;;;6.78;3.70;;;;;;;7.56;73.49;97846.28;4987114;28;20022;-82
2022/04/21 01:02:46;;;;;;;9.57;3.22;;;;;;;7.42;73.96;97845.72;4987088;28;20026;-82
2022/04/21 01:05:15;;;;;;;6.82;4.03;;;;;;;7.18;74.60;97846.16;4987080;28;20394;-82
2022/04/21 01:07:41;;;;;;;5.75;3.38;;;;;;;7.13;75.27;97848.03;4986644;28;20172;-82
2022/04/21 01:10:08;;;;;;;12.38;4.55;;;;;;;7.03;75.75;97846.47;4985842;28;20093;-82
2022/04/21 01:12:33;;;;;;;7.43;3.78;;;;;;;7.08;75.77;97839.38;4985825;28;20106;-82
2022/04/21 01:14:59;;;;;;;10.48;4.60;;;;;;;7.00;75.59;97836.06;4986980;28;20019;-82
2022/04/21 01:17:36;;;;;;;6.95;4.18;;;;;;;6.98;76.54;97837.81;4987020;28;20034;-82
2022/04/21 01:20:03;;;;;;;6.47;3.92;;;;;;;6.92;76.66;97827.47;4986538;28;20030;-82
2022/04/21 01:22:29;;;;;;;8.73;4.30;;;;;;;6.76;77.18;97825.13;4985551;28;20018;-82
2022/04/21 01:24:54;;;;;;;8.65;3.97;;;;;;;6.73;78.07;97820.84;4986597;28;20106;-82
2022/04/21 01:27:22;;;;;;;11.80;4.55;;;;;;;6.75;78.21;97821.69;4985536;28;20023;-82
2022/04/21 01:29:49;;;;;;;10.48;4.10;;;;;;;6.88;78.11;97824.94;4985467;28;20029;-82
2022/04/21 01:32:14;;;;;;;6.28;3.90;;;;;;;6.94;77.85;97817.84;4986345;28;20086;-82
2022/04/21 01:34:40;;;;;;;6.18;4.22;;;;;;;6.86;77.48;97811.88;4985173;28;20095;-82
2022/04/21 01:42:34;;;;;;;11.30;4.70;;;;;;;6.84;78.51;97811.06;4986370;28;20376;-82
2022/04/21 01:44:59;;;;;;;10.57;5.13;;;;;;;6.67;78.50;97802.63;4986317;28;20030;-82
2022/04/21 01:47:25;;;;;;;8.98;4.63;;;;;;;6.57;79.30;97809.78;4985185;28;20019;-82
2022/04/21 01:49:50;;;;;;;17.40;5.63;;;;;;;6.48;79.78;97806.44;4986020;28;20361;-82
2022/04/21 01:52:16;;;;;;;6.40;4.13;;;;;;;6.37;80.73;97797.94;4986184;28;20029;-82
2022/04/21 01:54:41;;;;;;;11.25;4.20;;;;;;;6.17;81.35;97802.63;4984993;28;20018;-82
2022/04/21 01:57:06;;;;;;;20.60;4.88;;;;;;;6.01;81.85;97801.13;4986089;28;20034;-82
2022/04/21 01:59:32;;;;;;;8.10;4.50;;;;;;;6.00;82.25;97801.97;4986044;28;20373;-82
2022/04/21 02:01:57;;;;;;;11.77;5.10;;;;;;;5.95;82.38;97801.22;4984811;28;20250;-82
2022/04/21 02:04:23;;;;;;;9.80;4.78;;;;;;;5.94;82.51;97794.22;4984599;28;20037;-82
2022/04/21 02:06:48;;;;;;;8.73;4.03;;;;;;;5.95;82.58;97795.97;4985920;28;20381;-82
2022/04/21 02:09:14;;;;;;;7.32;4.20;;;;;;;5.89;82.67;97796.06;4985809;28;20023;-82
2022/04/21 02:11:40;;;;;;;12.70;5.10;;;;;;;5.69;83.54;97788.47;4985865;28;20025;-82
2022/04/21 02:14:06;;;;;;;16.35;5.38;;;;;;;5.72;83.95;97803.22;4984670;28;20027;-82
2022/04/21 02:16:31;;;;;;;7.88;4.68;;;;;;;5.80;83.91;97796.16;4984610;28;20022;-82
2022/04/21 02:18:57;;;;;;;8.43;4.53;;;;;;;5.98;83.25;97801.16;4985499;28;20049;-82
2022/04/21 02:21:22;;;;;;;8.60;4.90;;;;;;;5.83;83.73;97797.03;4984208;28;20031;-82
2022/04/21 02:23:47;;;;;;;18.75;5.30;;;;;;;5.86;83.91;97794.34;4985649;28;20018;-82
2022/04/21 02:26:13;;;;;;;12.48;5.05;;;;;;;6.04;83.68;97801.03;4984340;28;20047;-82
2022/04/21 02:28:38;;;;;;;12.27;4.95;;;;;;;6.09;83.20;97794.88;4985554;28;20190;-82
2022/04/21 02:31:04;;;;;;;11.80;5.88;;;;;;;6.20;82.92;97792.09;4985573;28;20019;-82
2022/04/21 02:33:31;;;;;;;8.57;4.82;;;;;;;6.22;82.34;97792.94;4985539;28;20095;-82
2022/04/21 02:35:56;;;;;;;9.50;5.55;;;;;;;6.34;82.08;97795.38;4985242;28;20226;-82
2022/04/21 02:38:22;;;;;;;8.85;5.18;;;;;;;6.40;81.74;97788.28;4985418;28;20026;-82
2022/04/21 02:40:47;;;;;;;11.70;5.40;;;;;;;6.42;81.38;97788.25;4984352;28;20275;-82
2022/04/21 02:43:13;;;;;;;13.55;5.53;;;;;;;6.34;82.34;97787.53;4984207;28;20054;-82
2022/04/21 02:45:39;;;;;;;9.60;5.00;;;;;;;6.26;82.52;97776.31;4983928;28;20022;-82
2022/04/21 02:48:05;;;;;;;11.73;6.00;;;;;;;6.31;82.62;97777.13;4985228;28;20022;-82
2022/04/21 02:50:31;;;;;;;11.63;5.07;;;;;;;6.11;82.71;97776.59;4985281;28;20034;-82
2022/04/21 02:52:58;;;;;;;10.77;6.10;;;;;;;6.03;83.18;97778.44;4984099;28;20023;-82
2022/04/21 02:58:07;;;;;;;11.88;5.55;;;;;;;5.83;84.21;97775.25;4985199;28;20033;-82
2022/04/21 03:00:33;;;;;;;9.25;5.43;;;;;;;5.80;84.12;97770.91;4983644;28;20289;-82
2022/04/21 03:02:58;;;;;;;7.32;4.82;;;;;;;5.61;84.48;97763.34;4985138;28;20073;-82
2022/04/21 03:05:24;;;;;;;10.43;5.78;;;;;;;5.52;85.43;97773.91;4983912;28;20023;-82
2022/04/21 03:07:49;;;;;;;11.82;5.28;;;;;;;5.29;85.49;97765.53;4985057;28;20029;-82
2022/04/21 03:10:15;;;;;;;11.27;5.00;;;;;;;5.11;85.71;97770.94;4984887;28;20018;-82
2022/04/21 03:12:40;;;;;;;14.90;5.18;;;;;;;4.87;86.48;97760.81;4984996;28;20069;-82
2022/04/21 03:15:06;;;;;;;7.57;5.10;;;;;;;4.87;86.90;97766.03;4984966;28;20061;-82
2022/04/21 03:17:32;;;;;;;9.55;6.00;;;;;;;4.88;87.47;97772.97;4983630;28;20027;-82
2022/04/21 03:19:57;;;;;;;12.93;5.22;;;;;;;4.71;87.26;97765.31;4984943;28;20033;-82
2022/04/21 03:25:10;;;;;;;17.42;5.55;;;;;;;4.56;88.35;97759.41;4988780;28;20331;-82
2022/04/21 03:27:36;;;;;;;7.95;5.05;;;;;;;4.54;88.91;97762.03;4988904;28;20030;-82
2022/04/21 03:30:08;;;;;;;8.18;4.82;;;;;;;4.40;88.68;97756.09;4988792;28;20073;-82
2022/04/21 03:32:33;;;;;;;17.00;5.00;;;;;;;4.30;89.33;97755.28;4988693;28;20053;-82
2022/04/21 03:35:00;;;;;;;8.68;4.85;;;;;;;4.18;89.74;97758.00;4987613;28;20091;-82
2022/04/21 03:37:26;;;;;;;13.48;5.35;;;;;;;4.19;89.42;97753.66;4988828;28;20027;-82
2022/04/21 03:39:52;;;;;;;12.52;6.22;;;;;;;4.08;89.88;97751.13;4988631;28;20305;-82
2022/04/21 03:42:27;;;;;;;8.13;5.50;;;;;;;4.09;89.77;97752.00;4988503;28;20023;-82
2022/04/21 03:44:54;;;;;;;12.60;5.28;;;;;;;3.97;90.28;97758.19;4988549;28;20030;-82
2022/04/21 03:47:20;;;;;;;9.52;4.93;;;;;;;3.95;90.17;97749.50;4988235;28;20090;-82
2022/04/21 03:49:45;;;;;;;9.23;5.28;;;;;;;3.99;89.46;97756.41;4988478;28;20050;-82
2022/04/21 03:52:11;;;;;;;14.02;5.30;;;;;;;3.92;89.58;97753.88;4987269;28;20014;-82
2022/04/21 03:54:38;;;;;;;10.05;5.90;;;;;;;3.87;89.32;97756.53;4987185;28;20030;-82
2022/04/21 03:57:04;;;;;;;7.32;4.78;;;;;;;3.65;89.34;97754.06;4987181;28;20341;-82
2022/04/21 03:59:29;;;;;;;7.75;4.88;;;;;;;3.69;90.86;97756.63;4988347;28;20022;-83
2022/04/21 04:02:02;;;;;;;12.10;5.75;;;;;;;3.91;91.05;97757.34;4987871;28;20031;-83
2022/04/21 04:04:28;;;;;;;8.95;5.15;;;;;;;4.10;90.89;97758.94;4983801;28;20027;-82
2022/04/21 04:12:22;;;;;;;15.13;4.88;;;;;;;4.27;90.37;97747.50;4968757;29;20022;-84
2022/04/21 04:14:48;;;;;;;9.23;4.55;;;;;;;4.53;90.07;97761.16;4983567;28;20027;-84
2022/04/21 04:17:14;;;;;;;14.90;5.57;;;;;;;4.68;89.10;97756.69;4967558;28;20023;-84
2022/04/21 04:19:40;;;;;;;21.48;5.88;;;;;;;4.63;87.62;97761.06;4986524;28;20102;-84
2022/04/21 04:22:06;;;;;;;13.18;5.30;;;;;;;4.44;87.24;97768.19;4986387;28;20023;-85
2022/04/21 04:24:32;;;;;;;13.40;5.22;;;;;;;4.63;88.39;97766.28;4985669;28;20055;-85
2022/04/21 04:26:57;;;;;;;12.00;4.53;;;;;;;4.63;88.60;97766.28;4985506;28;20039;-84
2022/04/21 04:29:23;;;;;;;12.00;5.30;;;;;;;4.75;88.84;97774.84;4985778;28;20050;-84
2022/04/21 04:31:53;;;;;;;12.35;5.72;;;;;;;4.83;88.64;97774.75;5018100;28;20098;-84
2022/04/21 04:34:22;;;;;;;8.15;4.68;;;;;;;4.79;88.04;97773.06;5010663;28;20022;-84
2022/04/21 04:36:48;;;;;;;10.35;4.72;;;;;;;4.88;88.31;97778.19;4987395;28;20090;-85
2022/04/21 04:39:14;;;;;;;7.65;4.47;;;;;;;4.98;87.59;97774.59;4987575;28;20088;-85
2022/04/21 04:44:24;;;;;;;8.82;4.57;;;;;;;5.17;86.80;97773.50;4987520;28;20033;-85
2022/04/21 04:46:50;;;;;;;11.55;5.65;;;;;;;5.09;86.75;97770.97;4986321;28;20019;-85
2022/04/21 04:49:15;;;;;;;7.90;5.43;;;;;;;5.21;86.48;97772.56;4986325;28;20069;-85
2022/04/21 04:51:42;;;;;;;10.68;4.95;;;;;;;5.35;86.06;97770.66;4987326;28;20105;-85
2022/04/21 04:54:09;;;;;;;13.27;5.97;;;;;;;5.49;86.11;97774.81;4986237;28;20285;-85
2022/04/21 04:56:36;;;;;;;10.77;5.43;;;;;;;5.51;85.64;97772.19;4986103;28;20018;-85
2022/04/21 04:59:02;;;;;;;7.72;4.85;;;;;;;5.55;85.70;97776.50;4986091;28;20098;-85
2022/04/21 05:01:30;;;;;;;8.85;5.35;;;;;;;5.64;84.99;97779.84;4986492;28;20015;-85
2022/04/21 05:04:09;;;;;;;7.95;5.03;;;;;;;5.70;85.31;97773.69;4986002;28;20025;-85
2022/04/21 05:06:48;;;;;;;13.05;5.88;;;;;;;5.86;84.44;97780.44;4985967;28;20026;-85
2022/04/21 05:09:16;;;;;;;7.50;4.38;;;;;;;5.87;83.27;97775.19;4987026;28;20069;-85
2022/04/21 05:11:43;;;;;;;9.38;5.10;;;;;;;5.79;80.99;97768.34;4985801;28;20098;-85
2022/04/21 05:14:10;;;;;;;9.90;5.00;;;;;;;5.55;81.85;97763.44;4985807;28;20023;-85
2022/04/21 05:16:37;;;;;;;7.53;4.38;;;;;;;6.15;82.33;97763.44;4985768;28;20018;-85
2022/04/21 05:19:13;;;;;;;9.57;5.10;;;;;;;6.49;80.17;97772.44;4985734;28;20314;-85
2022/04/21 05:21:40;;;;;;;8.40;4.63;;;;;;;6.86;79.84;97770.03;4985616;28;20381;-85
2022/04/21 05:24:07;;;;;;;10.93;4.97;;;;;;;7.24;77.41;97782.41;4986702;28;20098;-85
2022/04/21 05:26:33;;;;;;;9.85;5.00;;;;;;;7.34;76.44;97783.94;4985434;28;20047;-85
2022/04/21 05:29:01;;;;;;;8.68;4.20;;;;;;;7.44;76.87;97781.06;4986701;28;20046;-85
2022/04/21 05:31:27;;;;;;;9.32;4.95;;;;;;;7.99;76.29;97784.25;4986521;28;20031;-85
2022/04/21 05:33:56;;;;;;;12.02;5.05;;;;;;;7.99;76.25;97781.63;4985424;28;20434;-85
2022/04/21 05:36:22;;;;;;;9.75;4.55;;;;;;;8.38;74.04;97785.97;4985689;28;20025;-85
2022/04/21 05:38:49;;;;;;;6.38;3.95;;;;;;;8.39;72.96;97774.56;4985381;28;20019;-85
2022/04/21 05:41:16;;;;;;;12.85;4.32;;;;;;;8.63;74.46;97779.22;4985611;28;20018;-85
2022/04/21 05:43:44;;;;;;;8.75;5.05;;;;;;;8.89;74.61;97781.16;4985808;28;20030;-85
2022/04/21 05:46:14;;;;;;;5.68;3.33;;;;;;;9.53;72.58;97782.91;4985156;28;20026;-85
2022/04/21 05:48:41;;;;;;;8.32;3.58;;;;;;;9.70;70.72;97778.00;4985159;28;20085;-85
2022/04/21 05:51:09;;;;;;;10.07;3.78;;;;;;;10.03;70.34;97784.91;4985004;28;20310;-85
2022/04/21 05:53:38;;;;;;;8.68;3.10;;;;;;;10.52;69.21;97785.09;4985049;28;20061;-85
2022/04/21 05:56:05;;;;;;;4.32;2.72;;;;;;;10.96;67.51;97784.47;4985058;28;20318;-85
2022/04/21 05:58:31;;;;;;;7.90;2.85;;;;;;;10.58;68.16;97769.09;4984964;28;20082;-85
2022/04/21 06:00:57;;;;;;;3.70;2.60;;;;;;;11.19;66.23;97789.78;4984937;28;20018;-85
2022/04/21 06:03:24;;;;;;;7.28;3.22;;;;;;;11.33;64.75;97784.03;4986012;28;20026;-85
2022/04/21 06:05:49;;;;;;;5.25;3.38;;;;;;;11.64;65.34;97787.31;4984878;28;20022;-85
2022/04/21 06:08:15;;;;;;;3.33;2.47;;;;;;;12.03;64.92;97786.69;4984824;28;20029;-86
2022/04/21 06:10:40;;;;;;;4.75;3.00;;;;;;;12.97;62.45;97795.13;5000924;28;20329;-86
2022/04/21 06:13:06;;;;;;;5.68;2.70;;;;;;;13.53;60.98;97789.19;4985867;28;20026;-86
2022/04/21 06:15:32;;;;;;;3.95;2.58;;;;;;;13.98;59.95;97792.44;4984721;28;20022;-86
2022/04/21 06:18:01;;;;;;;6.20;3.33;;;;;;;13.62;58.60;97788.78;4985940;28;20346;-86
2022/04/21 06:20:27;;;;;;;6.70;3.50;;;;;;;13.67;58.73;97781.53;4984621;28;20019;-86
2022/04/21 06:22:54;;;;;;;8.75;3.72;;;;;;;13.87;57.67;97778.81;4984491;28;20034;-86
2022/04/21 06:25:19;;;;;;;8.90;4.00;;;;;;;14.12;57.50;97774.13;4985535;28;20050;-86
2022/04/21 06:27:45;;;;;;;5.30;3.67;;;;;;;14.94;55.54;97787.75;4985652;28;20023;-86
2022/04/21 06:30:11;;;;;;;5.13;3.83;;;;;;;15.40;54.17;97792.44;4985478;28;20094;-86
2022/04/21 06:32:36;;;;;;;5.65;3.97;;;;;;;15.72;52.13;97788.97;4984409;28;20019;-86
2022/04/21 06:35:03;;;;;;;5.63;3.92;;;;;;;15.53;53.13;97787.38;4984367;28;20023;-86
2022/04/21 06:37:29;;;;;;;6.40;4.10;;;;;;;15.48;52.98;97784.97;4985398;28;20073;-86
2022/04/21 06:39:54;;;;;;;9.10;4.55;;;;;;;16.06;52.39;97788.88;4984279;28;20199;-86
2022/04/21 06:42:19;;;;;;;10.05;4.70;;;;;;;15.79;51.95;97779.72;4984260;28;20026;-86
2022/04/21 06:50:13;;;;;;;7.95;4.45;;;;;;;16.41;51.83;97785.13;4985243;28;20025;-86
2022/04/21 06:52:38;;;;;;;8.00;4.45;;;;;;;16.37;49.72;97777.41;4984208;28;20050;-86
2022/04/21 06:55:04;;;;;;;7.65;4.90;;;;;;;15.59;51.22;97771.97;4983272;28;20030;-86
2022/04/21 06:57:30;;;;;;;8.30;4.82;;;;;;;16.07;51.86;97774.66;4984079;28;20123;-86
2022/04/21 06:59:55;;;;;;;7.65;5.38;;;;;;;16.64;50.47;97782.06;4984083;28;20042;-86
2022/04/21 07:02:27;;;;;;;9.95;5.75;;;;;;;16.05;50.39;97771.25;4984040;28;20019;-86
2022/04/21 07:04:53;;;;;;;10.80;5.55;;;;;;;16.86;50.33;97782.53;4985091;28;20027;-86
2022/04/21 07:07:19;;;;;;;7.03;4.85;;;;;;;16.75;49.46;97770.81;4985085;28;20023;-86
2022/04/21 07:09:44;;;;;;;11.77;5.93;;;;;;;15.97;50.29;97764.59;4985093;28;20074;-86
2022/04/21 07:12:10;;;;;;;9.27;5.03;;;;;;;16.29;50.76;97769.88;4984190;28;20026;-86
2022/04/21 07:14:35;;;;;;;7.93;5.53;;;;;;;16.59;48.80;97775.31;4983989;28;20027;-86
2022/04/21 07:17:01;;;;;;;8.25;5.50;;;;;;;16.76;49.12;97781.38;4984989;28;20027;-86
2022/04/21 07:19:26;;;;;;;7.60;5.60;;;;;;;17.32;48.23;97791.34;4983875;28;20106;-86
2022/04/21 07:21:51;;;;;;;8.50;5.80;;;;;;;16.14;48.29;97754.78;4983741;28;20065;-86
2022/04/21 07:24:17;;;;;;;7.43;5.45;;;;;;;17.01;47.10;97776.34;4983578;28;20225;-86
2022/04/21 07:26:43;;;;;;;8.00;5.47;;;;;;;16.79;48.41;97770.56;4983794;28;20232;-86
2022/04/21 07:29:08;;;;;;;6.85;5.13;;;;;;;17.01;47.89;97773.69;4983730;28;20022;-86
2022/04/21 07:31:34;;;;;;;7.60;5.30;;;;;;;17.36;46.61;97781.38;4983650;28;20230;-86
2022/04/21 07:34:00;;;;;;;11.05;6.15;;;;;;;17.61;45.66;97797.59;4983676;28;20026;-86
2022/04/21 07:36:25;;;;;;;7.47;5.03;;;;;;;16.86;46.09;97771.91;4983668;28;20081;-86
2022/04/21 07:38:51;;;;;;;6.72;4.65;;;;;;;17.14;47.17;97787.09;4983656;28;20065;-86
2022/04/21 07:41:18;;;;;;;7.68;4.97;;;;;;;16.79;47.35;97770.56;4983745;28;20019;-86
2022/04/21 07:43:44;;;;;;;8.02;5.07;;;;;;;17.69;46.77;97784.69;4983992;28;20065;-86
2022/04/21 07:46:10;;;;;;;8.77;5.38;;;;;;;17.80;45.58;97776.91;4984751;28;20322;-86
2022/04/21 07:51:19;;;;;;;12.80;5.43;;;;;;;17.41;44.23;97792.59;4984625;28;20029;-86
2022/04/21 07:53:44;;;;;;;8.38;5.80;;;;;;;17.18;45.35;97800.13;4983551;28;20105;-86
2022/04/21 07:56:10;;;;;;;9.25;6.15;;;;;;;16.71;46.30;97783.41;4983497;28;20134;-86
2022/04/21 07:58:35;;;;;;;9.55;5.43;;;;;;;16.91;46.46;97779.63;4983878;28;20097;-86
2022/04/21 08:01:01;;;;;;;7.65;4.88;;;;;;;17.19;45.87;97785.88;4983512;28;20025;-86
2022/04/21 08:03:26;;;;;;;8.20;5.72;;;;;;;16.86;46.19;97781.69;4983425;28;20027;-86
2022/04/21 08:05:52;;;;;;;9.40;5.97;;;;;;;16.83;46.47;97781.84;4983492;28;20034;-86
2022/04/21 08:08:17;;;;;;;7.63;5.05;;;;;;;17.05;45.87;97782.31;4986822;28;20074;-85
2022/04/21 08:10:42;;;;;;;8.70;5.78;;;;;;;16.94;45.72;97775.00;4986945;28;20049;-86
2022/04/21 08:13:09;;;;;;;8.63;5.53;;;;;;;17.00;46.02;97782.59;4986974;28;20317;-86
2022/04/21 08:15:36;;;;;;;7.55;4.95;;;;;;;16.03;47.32;97781.06;4986939;28;20061;-86
2022/04/21 08:18:03;;;;;;;8.80;5.63;;;;;;;17.27;45.86;97788.97;4986803;28;20042;-86
2022/04/21 08:20:31;;;;;;;6.55;4.88;;;;;;;17.13;45.66;97791.59;4987150;28;20089;-86
2022/04/21 08:22:56;;;;;;;7.05;5.03;;;;;;;17.33;45.64;97798.38;4987868;28;20042;-86
2022/04/21 08:33:34;;;;;;;7.00;4.60;;;;;;;16.99;46.06;97790.66;4987756;28;20234;-86
2022/04/21 08:36:00;;;;;;;7.18;5.07;;;;;;;17.41;46.06;97806.78;4986883;28;20027;-86
2022/04/21 08:38:27;;;;;;;8.57;5.10;;;;;;;17.73;44.88;97799.53;4987625;28;20018;-86
2022/04/21 08:41:02;;;;;;;8.48;4.38;;;;;;;17.39;45.00;97791.81;4986502;28;20042;-86
2022/04/21 08:43:28;;;;;;;8.85;5.15;;;;;;;17.67;45.10;97797.25;4986847;28;20318;-86
2022/04/21 08:45:54;;;;;;;6.70;4.65;;;;;;;18.03;44.09;97792.34;4986402;28;20026;-86
2022/04/21 08:48:22;;;;;;;7.35;4.03;;;;;;;17.71;44.53;97788.97;4986290;28;20029;-86
2022/04/21 08:50:48;;;;;;;9.52;4.22;;;;;;;18.33;43.76;97785.06;4986249;28;20030;-86
2022/04/21 08:53:27;;;;;;;10.00;4.85;;;;;;;18.08;43.33;97787.56;4987371;28;20027;-86
2022/04/21 08:55:52;;;;;;;7.70;4.35;;;;;;;17.98;44.25;97791.75;4986182;28;20072;-86
2022/04/21 08:58:19;;;;;;;13.35;4.70;;;;;;;18.79;42.88;97791.81;4986179;28;20022;-86
2022/04/21 09:00:45;;;;;;;6.43;4.22;;;;;;;18.98;41.82;97798.53;4987239;28;20014;-86
2022/04/21 09:03:14;;;;;;;6.05;4.43;;;;;;;18.10;43.99;97783.00;4987142;28;20377;-86
2022/04/21 09:05:40;;;;;;;7.93;4.13;;;;;;;18.32;42.75;97786.03;4987130;28;20318;-86
2022/04/21 09:08:17;;;;;;;10.80;5.00;;;;;;;17.95;43.68;97775.97;4985960;28;20023;-86
2022/04/21 09:10:43;;;;;;;7.72;4.22;;;;;;;18.41;42.94;97778.31;4985841;28;20022;-86
2022/04/21 09:13:09;;;;;;;6.85;4.07;;;;;;;18.51;42.94;97781.28;4987028;28;20033;-86
2022/04/21 09:15:37;;;;;;;6.05;4.60;;;;;;;18.12;42.68;97775.75;4985788;28;20023;-86
2022/04/21 09:18:10;;;;;;;6.65;4.60;;;;;;;18.95;42.51;97781.88;4984823;28;20026;-86
2022/04/21 09:20:37;;;;;;;7.07;4.10;;;;;;;18.90;42.80;97784.88;4985822;28;20094;-86
2022/04/21 09:23:08;;;;;;;7.50;4.05;;;;;;;19.52;42.89;97788.66;4985664;28;20389;-86
2022/04/21 09:25:48;;;;;;;6.47;4.13;;;;;;;19.52;42.51;97782.47;4985535;28;20046;-86
2022/04/21 09:28:40;;;;;;;6.20;4.32;;;;;;;19.35;41.80;97775.63;4986683;28;20049;-86
2022/04/21 09:31:08;;;;;;;8.73;4.40;;;;;;;18.98;42.54;97771.00;4983586;28;20031;-86
2022/04/21 09:33:41;;;;;;;7.82;3.75;;;;;;;19.39;43.10;97777.09;4986676;28;20467;-86
2022/04/21 09:36:08;;;;;;;5.53;3.95;;;;;;;19.39;41.54;97771.78;4986571;28;20019;-86
2022/04/21 09:38:34;;;;;;;7.45;4.20;;;;;;;19.27;42.10;97767.28;4985401;28;20023;-86
2022/04/21 09:41:07;;;;;;;5.72;3.63;;;;;;;20.34;40.51;97779.25;4985369;28;20057;-86
2022/04/21 09:43:33;;;;;;;5.80;4.10;;;;;;;20.32;39.87;97770.53;4985300;28;20050;-86
2022/04/21 09:46:21;;;;;;;9.23;3.97;;;;;;;20.52;40.16;97761.91;4985279;28;20034;-86
2022/04/21 09:48:56;;;;;;;4.07;3.20;;;;;;;20.95;40.49;97771.16;4985553;28;20027;-86
2022/04/21 09:51:29;;;;;;;6.50;3.20;;;;;;;20.78;39.63;97762.66;4986180;28;20027;-86
2022/04/21 09:54:00;;;;;;;5.10;3.20;;;;;;;20.37;40.49;97752.31;4985159;28;20195;-86
2022/04/21 09:56:34;;;;;;;9.88;3.25;;;;;;;20.52;41.54;97753.03;4985071;28;20092;-86
2022/04/21 09:59:01;;;;;;;6.32;3.85;;;;;;;20.53;40.60;97744.88;4984961;28;20026;-86
2022/04/21 10:01:28;;;;;;;3.97;3.10;;;;;;;20.32;40.03;97730.44;4985031;28;20018;-86
2022/04/21 10:03:54;;;;;;;5.72;3.47;;;;;;;19.82;41.59;97716.25;4984993;28;20026;-86
2022/04/21 10:06:21;;;;;;;3.90;3.15;;;;;;;21.05;40.67;97748.13;4984906;28;20026;-86
2022/04/21 10:08:49;;;;;;;6.90;3.78;;;;;;;20.29;38.96;97725.31;4986027;28;20057;-86
2022/04/21 10:11:16;;;;;;;4.57;3.00;;;;;;;20.75;38.97;97728.09;4984723;28;20026;-86
2022/04/21 10:13:42;;;;;;;5.82;3.30;;;;;;;20.78;38.63;97725.22;4985884;28;20086;-86
2022/04/21 10:16:08;;;;;;;6.10;3.17;;;;;;;20.31;40.27;97725.19;4985879;28;20255;-86
2022/04/21 10:18:37;;;;;;;3.10;1.95;;;;;;;19.98;38.96;97712.41;4984671;28;20033;-86
2022/04/21 10:21:03;;;;;;;3.47;1.83;;;;;;;19.36;40.51;97713.28;4984959;28;20042;-86
2022/04/21 10:23:29;;;;;;;2.22;1.63;;;;;;;19.66;40.60;97713.81;4984540;28;20070;-86
2022/04/21 10:26:00;;;;;;;3.15;2.10;;;;;;;20.46;40.84;97708.88;4984420;28;20047;-86
2022/04/21 10:28:46;;;;;;;6.13;3.13;;;;;;;20.76;38.73;97698.56;4984550;28;20019;-86
2022/04/21 10:31:33;;;;;;;2.08;1.77;;;;;;;21.26;39.65;97709.03;4985354;28;20258;-86
2022/04/21 10:34:06;;;;;;;2.42;1.88;;;;;;;20.96;37.96;97708.69;4984593;28;20246;-86
2022/04/21 10:36:42;;;;;;;2.80;2.00;;;;;;;20.78;38.53;97688.63;4984364;28;20034;-86
2022/04/21 10:39:30;;;;;;;2.30;1.70;;;;;;;21.20;38.34;97690.75;4984343;28;20341;-86
2022/04/21 10:42:16;;;;;;;2.17;1.52;;;;;;;21.40;37.86;97691.03;4984305;28;20318;-86
2022/04/21 10:44:44;;;;;;;4.38;1.90;;;;;;;20.74;39.20;97681.81;4984235;28;20217;-86
2022/04/21 10:47:29;;;;;;;4.57;2.33;;;;;;;19.59;41.36;97660.97;4984140;28;20222;-86
2022/04/21 10:50:11;;;;;;;2.90;1.77;;;;;;;19.21;41.52;97660.97;4984159;28;20026;-86
2022/04/21 10:57:48;;;;;;;1.98;1.30;;;;;;;19.26;41.86;97664.16;4985301;28;20038;-86
2022/04/21 11:00:28;;;;;;;2.92;1.38;;;;;;;19.11;42.93;97649.22;4984043;28;20026;-86
2022/04/21 11:03:07;;;;;;;2.90;1.60;;;;;;;19.08;43.73;97649.44;4984086;28;20097;-86
2022/04/21 11:05:37;;;;;;;2.47;1.80;;;;;;;18.54;42.46;97634.50;4983955;28;20029;-86
2022/04/21 11:08:10;;;;;;;2.17;1.58;;;;;;;18.28;44.47;97635.31;4983967;28;20050;-86
2022/04/21 11:10:39;;;;;;;1.88;1.30;;;;;;;18.21;44.19;97639.34;4983856;28;20046;-86
2022/04/21 11:13:06;;;;;;;1.15;1.05;;;;;;;18.71;44.18;97644.88;4983864;28;20073;-86
2022/04/21 11:15:39;;;;;;;1.70;1.15;;;;;;;17.95;45.69;97632.19;4983944;28;20226;-86
2022/04/21 11:18:11;;;;;;;2.78;1.40;;;;;;;17.98;44.62;97626.66;4983861;28;20023;-86
2022/04/21 11:20:42;;;;;;;2.53;1.45;;;;;;;17.82;45.50;97621.50;4983841;28;20047;-86
2022/04/21 11:23:24;;;;;;;2.37;1.50;;;;;;;17.56;45.48;97618.78;4983810;28;20069;-86
2022/04/21 11:26:02;;;;;;;2.22;1.20;;;;;;;17.10;46.99;97616.28;4983649;28;20101;-86
2022/04/21 11:28:27;;;;;;;2.00;1.38;;;;;;;16.80;47.67;97628.75;4983790;28;20054;-86
2022/04/21 11:31:00;;;;;;;3.88;1.60;;;;;;;16.31;48.20;97608.69;4983645;28;20033;-86
2022/04/21 11:33:26;;;;;;;2.50;1.73;;;;;;;16.58;48.70;97612.38;4984876;28;20023;-86
2022/04/21 11:36:01;;;;;;;2.67;1.65;;;;;;;16.76;48.00;97621.94;4983691;28;20105;-86
2022/04/21 11:38:27;;;;;;;2.42;1.60;;;;;;;16.54;47.81;97616.16;4983669;28;20026;-86
2022/04/21 11:40:53;;;;;;;5.97;1.88;;;;;;;16.64;49.09;97622.66;4983656;28;20029;-86
2022/04/21 11:43:18;;;;;;;3.95;1.50;;;;;;;16.71;47.87;97612.53;4988401;28;20094;-86
2022/04/21 11:45:58;;;;;;;2.08;1.33;;;;;;;16.63;47.76;97610.31;4988650;28;20026;-86
2022/04/21 11:48:31;;;;;;;2.88;1.38;;;;;;;16.98;47.19;97609.06;4988592;28;20045;-86
2022/04/21 11:50:57;;;;;;;1.77;1.20;;;;;;;17.22;47.98;97625.31;4987336;28;20106;-86
2022/04/21 11:53:22;;;;;;;2.80;1.77;;;;;;;16.77;47.05;97618.31;4987345;28;20018;-86
2022/04/21 11:55:50;;;;;;;2.78;1.55;;;;;;;17.19;48.04;97610.38;4987364;28;20230;-86
2022/04/21 11:58:25;;;;;;;1.70;1.30;;;;;;;17.40;47.17;97607.34;4988416;28;20196;-86
2022/04/21 12:06:29;;;;;;;3.70;1.42;;;;;;;17.55;46.93;97595.75;4988272;28;20081;-86
2022/04/21 12:08:56;;;;;;;4.25;1.50;;;;;;;17.48;46.76;97605.09;4988198;28;20026;-86
2022/04/21 12:11:22;;;;;;;3.28;1.55;;;;;;;17.69;45.47;97593.97;4986952;28;20046;-86
2022/04/21 12:13:49;;;;;;;2.53;1.67;;;;;;;17.10;46.54;97570.22;4986999;28;20026;-86
2022/04/21 12:16:37;;;;;;;3.70;1.48;;;;;;;17.49;46.17;97582.88;4986916;28;20033;-86
2022/04/21 12:19:32;;;;;;;1.70;1.27;;;;;;;16.83;45.53;97571.91;4986864;28;20022;-86
2022/04/21 12:22:10;;;;;;;3.17;1.55;;;;;;;17.30;45.90;97574.31;4987221;28;20203;-86
2022/04/21 12:24:46;;;;;;;5.53;1.42;;;;;;;17.48;45.95;97567.84;4986673;28;20107;-86
2022/04/21 12:27:16;;;;;;;1.73;1.30;;;;;;;17.53;46.36;97571.06;4987833;28;20030;-86
2022/04/21 12:29:57;;;;;;;5.20;1.70;;;;;;;17.09;47.22;97572.00;4986684;28;20023;-86